Time;durP1;ratioP1;P1;durP2;ratioP2;P2;SDS_P1;SDS_P2;PMS_P1;PMS_P2;Temp;Humidity;BMP_temperature;BMP_pressure;BME280_temperature;BME280_humidity;BME280_pressure;Samples;Min_cycle;Max_cycle;Signal;HPM_P1;HPM_P2
2022/01/14 00:00:36;;;;;;;21.93;9.50;;;;;;;6.44;82.98;103045.88;4998356;28;20590;-45
2022/01/14 00:03:04;;;;;;;19.93;9.87;;;;;;;6.45;82.50;103033.47;4997181;28;20470;-48
2022/01/14 00:05:32;;;;;;;15.37;8.83;;;;;;;6.44;83.39;103026.47;4998687;28;20438;-46
2022/01/14 00:08:01;;;;;;;21.70;8.93;;;;;;;6.44;82.34;103037.09;4998755;28;20445;-49
2022/01/14 00:10:31;;;;;;;15.83;8.37;;;;;;;6.45;82.48;103029.00;4998469;28;20456;-51
2022/01/14 00:13:08;;;;;;;26.40;9.80;;;;;;;6.43;81.99;103038.88;4998153;28;20465;-49
2022/01/14 00:15:35;;;;;;;20.70;8.97;;;;;;;6.43;82.48;103036.22;4998758;28;20426;-51
2022/01/14 00:18:03;;;;;;;15.03;7.67;;;;;;;6.42;81.60;103039.00;4998635;28;20975;-45
2022/01/14 00:20:31;;;;;;;12.60;9.40;;;;;;;6.41;80.27;103045.25;4998230;28;20519;-49
2022/01/14 00:22:59;;;;;;;16.43;9.37;;;;;;;6.39;79.28;103041.88;4997818;28;20965;-50
2022/01/14 00:33:50;;;;;;;19.97;9.30;;;;;;;6.39;79.03;103033.94;4998462;28;20434;-47
2022/01/14 00:36:17;;;;;;;24.47;10.20;;;;;;;6.40;79.36;103012.59;4998652;28;20434;-50
2022/01/14 00:38:45;;;;;;;15.47;8.13;;;;;;;6.40;79.26;103023.19;4998858;28;20790;-46
2022/01/14 00:41:14;;;;;;;14.87;9.40;;;;;;;6.42;79.20;103010.69;4997458;28;20476;-46
2022/01/14 00:43:43;;;;;;;22.50;8.90;;;;;;;6.42;79.09;103026.56;4992245;28;20435;-48
2022/01/14 00:46:11;;;;;;;19.93;9.70;;;;;;;6.43;79.95;103022.13;4996672;28;20473;-45
2022/01/14 00:48:39;;;;;;;21.70;9.40;;;;;;;6.44;80.77;103010.56;4998502;28;20438;-46
2022/01/14 00:51:07;;;;;;;17.63;9.20;;;;;;;6.45;80.73;103013.09;4997810;28;20468;-51
2022/01/14 00:53:35;;;;;;;14.47;8.70;;;;;;;6.44;80.60;103005.28;4998448;28;20438;-48
2022/01/14 00:56:09;;;;;;;20.70;10.13;;;;;;;6.45;80.72;103007.78;4998269;28;20434;-45
2022/01/14 01:01:23;;;;;;;16.63;9.33;;;;;;;6.44;81.29;103008.78;4997698;28;20469;-46
2022/01/14 01:03:51;;;;;;;15.87;8.90;;;;;;;6.44;82.00;103010.56;4998425;28;20517;-48
2022/01/14 01:06:18;;;;;;;18.00;9.97;;;;;;;6.43;81.09;103004.41;4998315;28;20434;-46
2022/01/14 01:08:47;;;;;;;24.93;10.73;;;;;;;6.40;80.52;103007.31;4996430;28;20430;-48
2022/01/14 01:11:18;;;;;;;18.43;10.43;;;;;;;6.40;80.48;103001.16;4994470;28;20466;-46
2022/01/14 01:13:50;;;;;;;27.27;10.50;;;;;;;6.41;80.12;102997.56;4994989;28;20430;-50
2022/01/14 01:16:18;;;;;;;15.37;9.33;;;;;;;6.43;80.34;102991.16;4995242;28;20452;-47
2022/01/14 01:18:45;;;;;;;20.27;9.43;;;;;;;6.42;80.62;102983.34;4995096;28;20437;-49
2022/01/14 01:21:13;;;;;;;19.47;9.77;;;;;;;6.41;79.59;102993.09;4994149;28;21198;-48
2022/01/14 01:23:41;;;;;;;17.17;10.10;;;;;;;6.41;80.05;102997.56;4994841;28;20963;-50
2022/01/14 01:26:13;;;;;;;24.00;9.60;;;;;;;6.42;80.78;102991.31;4995005;28;20808;-47
2022/01/14 01:28:55;;;;;;;18.60;9.93;;;;;;;6.42;80.72;102991.31;4995075;28;20429;-46
2022/01/14 01:31:37;;;;;;;25.07;10.20;;;;;;;6.41;80.77;102992.25;4993296;28;20469;-48
2022/01/14 01:34:08;;;;;;;17.17;9.07;;;;;;;6.40;80.71;102994.06;4994712;28;20435;-47
2022/01/14 01:36:37;;;;;;;14.33;9.33;;;;;;;6.40;81.00;102977.28;4994960;28;20431;-47
2022/01/14 01:39:10;;;;;;;10.87;8.30;;;;;;;6.40;80.74;102980.81;4994760;28;20438;-48
2022/01/14 01:41:39;;;;;;;21.83;9.93;;;;;;;6.39;81.66;102971.16;5044820;23;20849;-46
2022/01/14 01:44:08;;;;;;;17.83;10.27;;;;;;;6.39;81.48;102954.44;5053786;28;20432;-45
2022/01/14 01:46:40;;;;;;;23.93;10.80;;;;;;;6.40;81.18;102953.44;5053731;28;20948;-46
2022/01/14 01:49:09;;;;;;;19.67;8.67;;;;;;;6.41;81.25;102950.69;5053470;28;20947;-45
2022/01/14 01:51:38;;;;;;;19.23;8.67;;;;;;;6.39;81.32;102941.19;5052955;28;20460;-45
2022/01/14 01:54:06;;;;;;;19.30;9.87;;;;;;;6.41;81.22;102947.19;5053162;28;20423;-45
2022/01/14 01:56:34;;;;;;;17.03;9.03;;;;;;;6.40;82.31;102948.16;5053622;28;20435;-45
2022/01/14 01:59:02;;;;;;;14.80;9.37;;;;;;;6.42;82.55;102935.66;5053551;28;20783;-49
2022/01/14 02:01:30;;;;;;;20.77;10.50;;;;;;;6.42;82.51;102938.28;5052709;28;20827;-51
2022/01/14 02:03:59;;;;;;;20.50;9.57;;;;;;;6.44;82.51;102937.22;5052902;28;20431;-45
2022/01/14 02:06:26;;;;;;;24.17;9.50;;;;;;;6.46;82.85;102940.59;5052899;28;20432;-47
2022/01/14 02:08:54;;;;;;;21.53;9.07;;;;;;;6.43;83.80;102939.97;5052638;28;20984;-45
2022/01/14 02:11:22;;;;;;;21.73;9.00;;;;;;;6.47;84.22;102933.47;5052569;28;20468;-49
2022/01/14 02:13:50;;;;;;;22.77;9.00;;;;;;;6.44;83.75;102929.25;5053171;28;20428;-46
2022/01/14 02:16:32;;;;;;;10.60;8.30;;;;;;;6.41;83.18;102923.34;5053316;28;20439;-47
2022/01/14 02:19:15;;;;;;;16.37;9.50;;;;;;;6.44;83.58;102921.31;5053452;28;20466;-46
2022/01/14 02:24:55;;;;;;;25.83;9.43;;;;;;;6.40;83.48;102916.34;5052268;28;20427;-45
2022/01/14 02:27:23;;;;;;;12.20;9.70;;;;;;;6.40;83.31;102913.69;5052402;28;20781;-47
2022/01/14 02:29:51;;;;;;;19.70;9.07;;;;;;;6.41;82.53;102929.50;5052747;28;20435;-47
2022/01/14 02:32:18;;;;;;;14.87;9.10;;;;;;;6.41;83.31;102918.91;5051734;28;20479;-45
2022/01/14 02:34:46;;;;;;;16.33;8.80;;;;;;;6.37;83.66;102904.19;5052460;28;20442;-48
2022/01/14 02:37:36;;;;;;;18.80;9.10;;;;;;;6.39;82.64;102898.78;5053156;28;20788;-45
2022/01/14 02:40:05;;;;;;;16.87;9.53;;;;;;;6.38;82.37;102891.78;5052904;28;20430;-47
2022/01/14 02:42:32;;;;;;;15.00;9.53;;;;;;;6.38;81.76;102897.06;5051862;28;20463;-47
2022/01/14 02:45:05;;;;;;;20.40;9.47;;;;;;;6.33;82.35;102897.41;5044030;28;20948;-46
2022/01/14 02:47:32;;;;;;;13.40;8.90;;;;;;;6.37;82.10;102879.47;5052649;28;20914;-45
2022/01/14 02:50:00;;;;;;;29.63;8.77;;;;;;;6.34;81.63;102872.59;5052711;28;20437;-46
2022/01/14 02:52:42;;;;;;;15.10;8.80;;;;;;;6.33;81.57;102891.28;5051592;28;21008;-45
2022/01/14 02:55:17;;;;;;;20.87;9.60;;;;;;;6.33;81.92;102896.59;5052447;28;20433;-46
2022/01/14 02:57:47;;;;;;;22.53;9.97;;;;;;;6.35;80.81;102882.25;5052640;28;20443;-46
2022/01/14 03:00:16;;;;;;;23.70;10.23;;;;;;;6.33;79.87;102883.34;5052205;28;20431;-48
2022/01/14 03:02:47;;;;;;;26.90;10.00;;;;;;;6.31;79.80;102882.59;5051885;28;20471;-45
2022/01/14 03:05:17;;;;;;;34.10;10.80;;;;;;;6.30;79.57;102896.81;5052410;28;20837;-45
2022/01/14 03:07:45;;;;;;;18.70;9.60;;;;;;;6.25;78.76;102910.41;5052011;28;20441;-46
2022/01/14 03:10:18;;;;;;;26.93;10.00;;;;;;;6.23;77.48;102909.69;5051779;28;20424;-46
2022/01/14 03:12:46;;;;;;;18.00;9.33;;;;;;;6.21;76.90;102908.13;5051642;28;21009;-47
2022/01/14 03:15:15;;;;;;;11.13;8.80;;;;;;;6.15;76.87;102896.19;5052262;28;20432;-46
2022/01/14 03:17:43;;;;;;;15.97;9.53;;;;;;;6.14;74.64;102894.47;5051565;28;20446;-49
2022/01/14 03:20:31;;;;;;;16.90;10.20;;;;;;;6.12;73.43;102893.75;5051385;28;20431;-45
2022/01/14 03:23:05;;;;;;;20.63;9.80;;;;;;;6.12;72.50;102894.59;5051553;28;20479;-44
2022/01/14 03:25:48;;;;;;;16.17;9.90;;;;;;;6.10;71.72;102893.00;5052119;28;20459;-46
2022/01/14 03:28:21;;;;;;;15.73;9.77;;;;;;;6.06;69.99;102905.63;5051977;28;20436;-44
2022/01/14 03:30:49;;;;;;;23.07;9.00;;;;;;;6.05;68.67;102896.03;5051168;28;20458;-48
2022/01/14 03:33:17;;;;;;;26.20;10.03;;;;;;;6.05;66.70;102900.47;5051393;28;20921;-48
2022/01/14 03:35:45;;;;;;;16.93;8.90;;;;;;;6.03;64.22;102891.81;5052002;28;20433;-45
2022/01/14 03:38:13;;;;;;;15.80;10.50;;;;;;;6.05;64.67;102903.13;5051910;28;20805;-46
2022/01/14 03:40:42;;;;;;;21.77;9.03;;;;;;;6.01;64.76;102905.16;5051124;28;20513;-46
2022/01/14 03:43:10;;;;;;;26.57;9.93;;;;;;;6.00;63.52;102906.09;5048453;28;20468;-45
2022/01/14 03:45:38;;;;;;;15.70;9.73;;;;;;;5.98;62.71;102907.16;5045013;28;20428;-44
2022/01/14 03:48:06;;;;;;;16.93;9.73;;;;;;;5.93;60.71;102902.22;5051298;28;20934;-44
2022/01/14 03:50:34;;;;;;;19.73;10.77;;;;;;;5.91;58.05;102912.06;5051474;28;20447;-46
2022/01/14 03:53:02;;;;;;;22.37;10.27;;;;;;;5.93;58.50;102915.47;5051223;28;20807;-45
2022/01/14 03:55:35;;;;;;;22.13;10.47;;;;;;;5.90;58.06;102906.91;5051621;28;20427;-44
2022/01/14 03:58:04;;;;;;;24.73;10.10;;;;;;;5.86;55.88;102889.53;5051511;28;20442;-44
2022/01/14 04:00:32;;;;;;;18.23;10.33;;;;;;;5.88;54.11;102888.50;5050723;28;20459;-49
2022/01/14 04:03:00;;;;;;;20.47;9.60;;;;;;;5.84;52.85;102888.78;5050763;28;21064;-45
2022/01/14 04:05:28;;;;;;;22.30;11.40;;;;;;;5.87;51.99;102876.22;5050917;28;20946;-46
2022/01/14 04:07:55;;;;;;;29.33;10.33;;;;;;;5.86;50.64;102871.84;5051324;28;20431;-47
2022/01/14 04:10:25;;;;;;;17.70;9.30;;;;;;;5.89;50.72;102868.13;5050848;28;20433;-45
2022/01/14 04:12:58;;;;;;;28.30;11.63;;;;;;;5.91;51.70;102868.88;5051039;28;20467;-48
2022/01/14 04:15:38;;;;;;;17.07;10.10;;;;;;;5.89;51.54;102881.38;5051571;28;20423;-46
2022/01/14 04:18:07;;;;;;;26.47;10.57;;;;;;;5.89;51.58;102854.91;5051188;28;20427;-46
2022/01/14 04:20:36;;;;;;;25.93;10.43;;;;;;;5.88;50.48;102867.31;5050369;28;20447;-48
2022/01/14 04:23:05;;;;;;;24.50;9.80;;;;;;;5.85;50.40;102867.53;5050197;28;20479;-45
2022/01/14 04:25:33;;;;;;;19.03;9.23;;;;;;;5.86;49.97;102863.91;5051198;28;20790;-46
2022/01/14 04:28:02;;;;;;;16.63;8.97;;;;;;;5.85;48.76;102878.13;5051614;28;20434;-46
2022/01/14 04:30:32;;;;;;;23.33;10.67;;;;;;;5.88;48.56;102864.66;5051038;28;20455;-44
2022/01/14 04:32:59;;;;;;;31.80;10.63;;;;;;;5.86;49.21;102874.50;5050090;28;20461;-46
2022/01/14 04:35:27;;;;;;;31.67;10.47;;;;;;;5.89;50.22;102870.78;5050821;28;20458;-46
2022/01/14 04:37:55;;;;;;;34.30;10.27;;;;;;;5.90;50.06;102872.47;5051240;28;20446;-47
2022/01/14 04:40:23;;;;;;;26.60;9.40;;;;;;;5.93;49.87;102874.91;5050312;28;20832;-45
2022/01/14 04:42:52;;;;;;;17.70;10.23;;;;;;;5.91;50.40;102867.06;5049823;28;20478;-46
2022/01/14 04:45:29;;;;;;;18.50;9.23;;;;;;;5.95;51.05;102867.69;5052732;28;20427;-47
2022/01/14 04:47:58;;;;;;;18.43;9.80;;;;;;;5.96;51.76;102864.06;5054599;28;20438;-44
2022/01/14 04:50:26;;;;;;;21.63;9.70;;;;;;;5.95;52.10;102868.53;5054687;28;20433;-47
2022/01/14 04:52:53;;;;;;;19.67;9.37;;;;;;;5.98;51.80;102864.78;5054385;28;20466;-45
2022/01/14 04:55:24;;;;;;;28.20;12.37;;;;;;;6.02;51.38;102850.38;5054651;28;20431;-46
2022/01/14 04:57:52;;;;;;;27.83;11.60;;;;;;;6.04;53.52;102846.66;5054635;28;20446;-45
2022/01/14 05:00:23;;;;;;;27.70;11.57;;;;;;;6.07;53.89;102840.28;5052586;28;20926;-44
2022/01/14 05:02:53;;;;;;;30.17;10.20;;;;;;;6.10;56.08;102834.75;5052428;28;20497;-45
2022/01/14 05:05:25;;;;;;;22.40;11.00;;;;;;;6.12;56.51;102835.50;5054666;28;20431;-47
2022/01/14 05:07:53;;;;;;;14.50;11.37;;;;;;;6.16;57.25;102828.13;5054878;28;20442;-47
2022/01/14 05:10:34;;;;;;;17.53;10.27;;;;;;;6.17;59.07;102825.38;5054238;28;20708;-44
2022/01/14 05:13:02;;;;;;;32.40;10.20;;;;;;;6.16;60.82;102821.03;5053862;28;20466;-47
2022/01/14 05:15:30;;;;;;;23.40;11.60;;;;;;;6.17;61.35;102814.78;5054527;28;20431;-47
2022/01/14 05:17:58;;;;;;;22.30;9.77;;;;;;;6.19;62.34;102812.00;5054265;28;20947;-45
2022/01/14 05:20:27;;;;;;;24.80;10.90;;;;;;;6.22;62.82;102817.91;5053935;28;20434;-45
2022/01/14 05:22:54;;;;;;;19.73;9.77;;;;;;;6.19;64.10;102812.84;5053719;28;20486;-46
2022/01/14 05:25:22;;;;;;;21.33;9.97;;;;;;;6.19;65.51;102809.34;5054156;28;20427;-45
2022/01/14 05:27:50;;;;;;;27.33;10.67;;;;;;;6.16;66.47;102813.06;5054530;28;20431;-45
2022/01/14 05:30:18;;;;;;;30.67;10.80;;;;;;;6.17;65.84;102813.94;5054207;28;21047;-46
2022/01/14 05:32:47;;;;;;;23.47;9.23;;;;;;;6.19;66.32;102822.59;5053528;28;20986;-47
2022/01/14 05:35:16;;;;;;;23.23;10.40;;;;;;;6.18;66.11;102811.19;5053931;28;20937;-47
2022/01/14 05:37:45;;;;;;;37.87;12.60;;;;;;;6.19;66.94;102812.84;5053894;28;20431;-47
2022/01/14 05:40:15;;;;;;;22.87;10.27;;;;;;;6.18;68.18;102811.19;5054035;28;20436;-48
2022/01/14 05:42:43;;;;;;;34.37;11.37;;;;;;;6.20;67.61;102808.41;5053123;28;20478;-47
2022/01/14 05:45:12;;;;;;;24.40;10.10;;;;;;;6.21;68.13;102804.78;5045326;28;20980;-48
2022/01/14 05:47:40;;;;;;;24.90;11.80;;;;;;;6.22;68.81;102802.00;5053878;28;20442;-45
2022/01/14 05:50:11;;;;;;;30.27;10.83;;;;;;;6.23;69.70;102808.16;5053531;28;20801;-47
2022/01/14 05:52:38;;;;;;;21.23;10.00;;;;;;;6.22;69.60;102806.47;5053045;28;20460;-46
2022/01/14 05:55:11;;;;;;;23.43;10.13;;;;;;;6.23;71.50;102797.56;5053250;28;20431;-45
2022/01/14 05:57:38;;;;;;;32.33;11.47;;;;;;;6.24;71.76;102800.09;5053622;28;20439;-47
2022/01/14 06:00:09;;;;;;;20.83;9.83;;;;;;;6.25;71.74;102812.38;5053413;28;20432;-45
2022/01/14 06:02:36;;;;;;;17.70;9.67;;;;;;;6.29;71.54;102810.34;5052807;28;20476;-47
2022/01/14 06:05:05;;;;;;;19.43;9.30;;;;;;;6.28;72.37;102806.84;5053393;28;20439;-47
2022/01/14 06:07:32;;;;;;;32.37;10.03;;;;;;;6.31;72.36;102808.41;5053571;28;20435;-46
2022/01/14 06:10:00;;;;;;;23.40;9.23;;;;;;;6.34;72.45;102816.13;5053314;28;20898;-47
2022/01/14 06:12:29;;;;;;;23.30;9.50;;;;;;;6.32;73.99;102816.25;5052644;28;20466;-50
2022/01/14 06:14:57;;;;;;;27.30;10.87;;;;;;;6.38;73.29;102812.28;5053324;28;20845;-45
2022/01/14 06:17:24;;;;;;;25.43;10.70;;;;;;;6.40;74.12;102818.28;5053065;28;20436;-46
2022/01/14 06:19:52;;;;;;;26.80;10.30;;;;;;;6.39;74.52;102820.09;5053381;28;20427;-47
2022/01/14 06:22:22;;;;;;;21.50;10.13;;;;;;;6.40;74.33;102818.28;5052392;28;20982;-46
2022/01/14 06:24:50;;;;;;;33.40;10.80;;;;;;;6.42;74.56;102819.03;5053012;28;20440;-45
2022/01/14 06:27:18;;;;;;;23.10;10.73;;;;;;;6.43;74.23;102813.59;5053716;28;20783;-47
2022/01/14 06:29:47;;;;;;;17.73;10.37;;;;;;;6.45;72.63;102805.53;5052980;28;20775;-48
2022/01/14 06:32:14;;;;;;;23.33;10.40;;;;;;;6.50;72.41;102808.66;5052180;28;20478;-48
2022/01/14 06:34:42;;;;;;;32.30;10.30;;;;;;;6.52;74.44;102809.38;5052990;28;20428;-47
2022/01/14 06:37:15;;;;;;;18.93;10.27;;;;;;;6.55;75.38;102807.34;5052753;28;20435;-46
2022/01/14 06:39:43;;;;;;;17.13;10.17;;;;;;;6.57;76.32;102802.75;5052894;28;20802;-46
2022/01/14 06:42:11;;;;;;;21.20;11.60;;;;;;;6.59;75.87;102803.50;5051943;28;20468;-48
2022/01/14 06:44:38;;;;;;;24.53;10.37;;;;;;;6.62;76.31;102803.25;5044061;28;20485;-46
2022/01/14 06:47:07;;;;;;;21.20;11.10;;;;;;;6.62;77.09;102803.25;5052783;28;20437;-46
2022/01/14 06:49:35;;;;;;;24.00;11.80;;;;;;;6.61;78.12;102800.72;5052499;28;20438;-45
2022/01/14 06:52:03;;;;;;;22.77;11.37;;;;;;;6.60;78.14;102807.81;5051766;28;20475;-47
2022/01/14 06:54:31;;;;;;;19.33;11.70;;;;;;;6.63;78.09;102804.94;5052446;28;20498;-49
2022/01/14 06:56:58;;;;;;;28.80;12.03;;;;;;;6.60;78.22;102807.81;5052349;28;20942;-49
2022/01/14 06:59:26;;;;;;;20.73;11.07;;;;;;;6.62;78.22;102807.72;5052407;28;20432;-45
2022/01/14 07:01:54;;;;;;;22.73;11.53;;;;;;;6.63;78.08;102827.97;5051623;28;20467;-46
2022/01/14 07:04:23;;;;;;;31.13;10.93;;;;;;;6.63;78.50;102823.47;5052125;28;21053;-46
2022/01/14 07:06:51;;;;;;;23.83;10.80;;;;;;;6.63;79.05;102817.38;5052126;28;20439;-46
2022/01/14 07:09:18;;;;;;;26.30;10.30;;;;;;;6.65;78.50;102820.72;5052172;28;20432;-45
2022/01/14 07:11:52;;;;;;;26.07;10.03;;;;;;;6.65;78.86;102823.38;5051688;28;20475;-47
2022/01/14 07:14:20;;;;;;;18.93;9.77;;;;;;;6.66;78.90;102830.34;5052348;28;20455;-48
2022/01/14 07:16:48;;;;;;;16.90;10.63;;;;;;;6.65;78.25;102834.84;5052286;28;20431;-45
2022/01/14 07:19:17;;;;;;;29.70;11.80;;;;;;;6.66;78.25;102833.84;5052137;28;20437;-45
2022/01/14 07:21:46;;;;;;;35.27;13.07;;;;;;;6.68;76.87;102841.69;5051393;28;20471;-47
2022/01/14 07:24:14;;;;;;;26.43;12.00;;;;;;;6.67;76.75;102848.81;5051922;28;20471;-49
2022/01/14 07:26:43;;;;;;;26.87;11.27;;;;;;;6.67;76.35;102846.16;5052117;28;20441;-48
2022/01/14 07:29:10;;;;;;;30.30;12.20;;;;;;;6.68;74.85;102833.75;5052223;28;20427;-47
2022/01/14 07:31:38;;;;;;;26.27;10.80;;;;;;;6.68;73.36;102842.53;5051210;28;21023;-45
2022/01/14 07:34:05;;;;;;;37.47;14.30;;;;;;;6.71;72.12;102844.09;5051924;28;20432;-45
2022/01/14 07:36:36;;;;;;;28.10;12.17;;;;;;;6.73;71.84;102842.16;5051754;28;20435;-46
2022/01/14 07:39:06;;;;;;;39.00;12.40;;;;;;;6.73;71.65;102850.13;5051777;28;20438;-47
2022/01/14 07:41:34;;;;;;;27.20;11.47;;;;;;;6.74;70.01;102851.81;5075809;23;20994;-48
2022/01/14 07:44:02;;;;;;;26.33;11.33;;;;;;;6.74;70.32;102854.47;5051525;28;20467;-50
2022/01/14 07:46:29;;;;;;;31.73;11.67;;;;;;;6.77;68.89;102843.63;5051603;28;20431;-50
2022/01/14 07:48:58;;;;;;;23.43;11.50;;;;;;;6.78;67.90;102852.44;5051834;28;20435;-50
2022/01/14 07:51:25;;;;;;;27.70;11.50;;;;;;;6.77;67.19;102848.94;5050924;28;20471;-49
2022/01/14 07:53:53;;;;;;;28.33;11.60;;;;;;;6.80;66.77;102858.44;5051969;28;20615;-47
2022/01/14 07:56:22;;;;;;;24.43;12.40;;;;;;;6.80;67.41;102867.25;5051587;28;20435;-45
2022/01/14 07:58:50;;;;;;;40.93;12.33;;;;;;;6.85;66.33;102872.19;5051497;28;20542;-48
2022/01/14 08:01:18;;;;;;;26.33;12.37;;;;;;;6.86;66.65;102879.19;5050907;28;20460;-47
2022/01/14 08:03:46;;;;;;;27.20;12.33;;;;;;;6.84;66.75;102879.28;5051377;28;20843;-45
2022/01/14 08:06:13;;;;;;;27.00;12.50;;;;;;;6.87;65.55;102884.34;5051712;28;20449;-48
2022/01/14 08:08:41;;;;;;;31.00;10.13;;;;;;;6.90;66.42;102878.81;5051616;28;20820;-52
2022/01/14 08:11:08;;;;;;;35.17;10.60;;;;;;;6.91;67.54;102883.16;5050922;28;20459;-47
2022/01/14 08:13:37;;;;;;;28.77;11.47;;;;;;;6.95;67.46;102883.75;5051628;28;20431;-49
2022/01/14 08:16:05;;;;;;;37.93;11.70;;;;;;;6.93;67.40;102889.16;5051433;28;20432;-47
2022/01/14 08:18:33;;;;;;;23.20;11.77;;;;;;;6.96;67.56;102888.94;5053235;28;20436;-45
2022/01/14 08:21:01;;;;;;;25.60;11.37;;;;;;;6.98;67.25;102891.47;5054696;28;20433;-45
2022/01/14 08:23:28;;;;;;;31.30;11.73;;;;;;;6.99;67.33;102891.34;5055386;28;20451;-47
2022/01/14 08:25:57;;;;;;;32.37;11.73;;;;;;;6.99;66.10;102904.59;5055412;28;20427;-45
2022/01/14 08:28:25;;;;;;;28.97;11.97;;;;;;;6.99;65.64;102891.34;5055255;28;20429;-46
2022/01/14 08:30:55;;;;;;;41.30;13.13;;;;;;;6.97;64.63;102895.94;5054971;28;20450;-45
2022/01/14 08:33:22;;;;;;;31.63;12.20;;;;;;;6.96;64.90;102890.75;5055322;28;20830;-49
2022/01/14 08:35:50;;;;;;;37.60;11.77;;;;;;;6.97;63.83;102903.03;5055312;28;20435;-46
2022/01/14 08:38:18;;;;;;;25.43;12.67;;;;;;;6.97;64.17;102895.09;5055303;28;20431;-46
2022/01/14 08:40:46;;;;;;;37.97;12.20;;;;;;;6.97;63.44;102905.69;5054484;28;20438;-47
2022/01/14 08:43:13;;;;;;;33.13;12.13;;;;;;;6.98;62.91;102902.09;5052547;28;20463;-47
2022/01/14 08:45:41;;;;;;;31.47;11.93;;;;;;;6.99;63.04;102909.09;5049233;28;20470;-51
2022/01/14 08:48:10;;;;;;;37.37;12.40;;;;;;;7.00;62.12;102918.72;5055081;28;20539;-49
2022/01/14 08:50:40;;;;;;;37.50;10.90;;;;;;;6.98;63.31;102932.13;5054979;28;20788;-45
2022/01/14 08:53:09;;;;;;;35.03;11.60;;;;;;;6.99;61.92;102936.44;5054674;28;20448;-45
2022/01/14 08:55:37;;;;;;;28.63;11.23;;;;;;;6.99;59.70;102941.75;5054745;28;20427;-51
2022/01/14 08:58:05;;;;;;;28.00;10.47;;;;;;;7.02;55.86;102940.66;5054981;28;20423;-45
2022/01/14 09:00:33;;;;;;;20.47;10.07;;;;;;;7.02;55.49;102938.00;5054583;28;20431;-48
2022/01/14 09:03:03;;;;;;;20.30;8.93;;;;;;;6.99;54.60;102938.28;5054084;28;20520;-44
2022/01/14 09:05:32;;;;;;;20.17;8.93;;;;;;;7.01;51.40;102945.16;5054712;28;20756;-47
2022/01/14 09:08:02;;;;;;;18.63;8.57;;;;;;;7.01;47.70;102954.91;5054602;28;20447;-48
2022/01/14 09:10:29;;;;;;;23.80;10.43;;;;;;;7.06;47.20;102942.97;5054128;28;20457;-50
2022/01/14 09:12:57;;;;;;;19.77;9.60;;;;;;;7.05;46.82;102959.00;5053915;28;20471;-48
2022/01/14 09:15:25;;;;;;;16.30;8.43;;;;;;;7.05;47.06;102959.84;5054539;28;20432;-48
2022/01/14 09:17:53;;;;;;;14.63;8.60;;;;;;;7.05;45.21;102959.84;5054474;28;20436;-50
2022/01/14 09:20:20;;;;;;;12.90;7.30;;;;;;;7.02;40.82;102954.78;5054338;28;20432;-46
2022/01/14 09:22:51;;;;;;;24.27;8.57;;;;;;;7.04;37.52;102955.50;5053691;28;20464;-49
2022/01/14 09:25:20;;;;;;;12.00;7.57;;;;;;;6.99;38.19;102959.50;5054406;28;20921;-45
2022/01/14 09:27:50;;;;;;;12.07;7.60;;;;;;;7.02;36.64;102952.13;5054444;28;20432;-45
2022/01/14 09:30:19;;;;;;;17.07;7.60;;;;;;;7.05;36.06;102946.56;5053373;28;20420;-48
2022/01/14 09:32:47;;;;;;;10.87;7.80;;;;;;;7.02;33.74;102957.41;5053413;28;20467;-45
2022/01/14 09:35:15;;;;;;;10.43;7.10;;;;;;;7.06;34.17;102958.03;5054033;28;20506;-45
2022/01/14 09:37:44;;;;;;;17.10;7.40;;;;;;;7.11;32.17;102958.50;5054194;28;20435;-47
2022/01/14 09:40:16;;;;;;;8.80;6.83;;;;;;;7.14;33.41;102958.25;5053901;28;20436;-48
2022/01/14 09:42:47;;;;;;;13.17;6.47;;;;;;;7.20;33.24;102965.75;5053067;28;20471;-49
2022/01/14 09:45:15;;;;;;;9.93;6.97;;;;;;;7.17;32.59;102969.50;5045408;28;20471;-49
2022/01/14 09:47:48;;;;;;;10.40;7.40;;;;;;;7.24;31.56;102965.41;5053752;28;20439;-50
2022/01/14 09:50:15;;;;;;;13.90;7.00;;;;;;;7.36;32.33;102963.59;5054142;28;20438;-50
2022/01/14 09:52:45;;;;;;;7.10;6.37;;;;;;;7.40;34.03;102965.03;5052948;28;20473;-48
2022/01/14 09:55:14;;;;;;;7.13;6.50;;;;;;;7.43;37.30;102966.59;5053659;28;20431;-48
2022/01/14 09:57:41;;;;;;;10.43;7.00;;;;;;;7.42;39.47;102987.00;5053693;28;20813;-49
2022/01/14 10:00:10;;;;;;;8.70;6.77;;;;;;;7.40;42.20;102988.94;5053492;28;20432;-51
2022/01/14 10:02:40;;;;;;;8.80;6.50;;;;;;;7.43;41.39;102999.31;5052935;28;20485;-50
2022/01/14 10:05:10;;;;;;;9.57;6.70;;;;;;;7.52;40.51;103001.22;5053834;28;20477;-48
2022/01/14 10:07:38;;;;;;;9.93;7.10;;;;;;;7.56;40.92;102999.16;5053500;28;20440;-50
2022/01/14 10:10:25;;;;;;;12.33;7.73;;;;;;;7.60;44.88;102997.94;5053374;28;20436;-52
2022/01/14 10:12:53;;;;;;;8.10;6.13;;;;;;;7.65;47.40;103003.72;5052958;28;20463;-48
2022/01/14 10:15:20;;;;;;;8.70;6.43;;;;;;;7.57;47.39;103008.81;5053221;28;20991;-47
2022/01/14 10:17:48;;;;;;;6.23;5.73;;;;;;;7.51;47.85;103007.50;5053461;28;20470;-48
2022/01/14 10:20:18;;;;;;;8.07;6.03;;;;;;;7.48;43.65;103007.75;5053295;28;20436;-50
2022/01/14 10:22:48;;;;;;;7.27;6.13;;;;;;;7.49;42.21;103014.75;5052575;28;20476;-49
2022/01/14 10:25:17;;;;;;;6.80;6.13;;;;;;;7.50;43.37;103013.75;5052947;28;20471;-48
2022/01/14 10:27:48;;;;;;;11.47;6.80;;;;;;;7.52;42.14;103009.19;5053241;28;20437;-46
2022/01/14 10:30:19;;;;;;;6.50;6.10;;;;;;;7.48;43.34;103013.06;5053187;28;20522;-52
2022/01/14 10:32:54;;;;;;;7.57;6.97;;;;;;;7.44;43.37;103016.06;5052515;28;20467;-48
2022/01/14 10:35:23;;;;;;;7.30;6.60;;;;;;;7.39;41.82;103018.22;5053052;28;20426;-47
2022/01/14 10:37:51;;;;;;;10.07;7.47;;;;;;;7.38;42.55;103028.00;5052985;28;20435;-47
2022/01/14 10:40:22;;;;;;;7.70;7.20;;;;;;;7.41;42.45;103016.28;5052900;28;20791;-48
2022/01/14 10:42:53;;;;;;;8.33;6.23;;;;;;;7.40;43.82;103009.31;5051274;28;20478;-46
2022/01/14 10:45:41;;;;;;;7.90;6.33;;;;;;;7.41;46.83;103010.97;5052788;28;20472;-46
2022/01/14 10:48:11;;;;;;;6.60;6.10;;;;;;;7.42;49.31;103020.66;5052645;28;20534;-45
2022/01/14 10:50:40;;;;;;;6.87;6.30;;;;;;;7.46;50.38;103011.50;5052765;28;20428;-45
2022/01/14 10:53:11;;;;;;;6.77;6.27;;;;;;;7.50;52.34;103016.41;5052249;28;20464;-47
2022/01/14 10:55:45;;;;;;;8.43;6.10;;;;;;;7.53;55.33;103008.22;5052629;28;20427;-53
2022/01/14 10:58:17;;;;;;;7.73;6.93;;;;;;;7.61;53.74;103011.13;5052539;28;20946;-46
2022/01/14 11:00:48;;;;;;;6.73;6.13;;;;;;;7.56;59.44;103018.59;5051661;28;20972;-50
2022/01/14 11:03:17;;;;;;;6.90;6.20;;;;;;;7.60;58.28;103014.72;5052577;28;20684;-45
2022/01/14 11:05:45;;;;;;;7.70;6.80;;;;;;;7.59;61.76;103018.34;5052212;28;20982;-49
2022/01/14 11:08:12;;;;;;;6.47;6.00;;;;;;;7.80;60.50;103018.44;5052421;28;20440;-46
2022/01/14 11:10:40;;;;;;;6.50;6.20;;;;;;;7.76;67.78;103020.50;5052097;28;20431;-53
2022/01/14 11:13:11;;;;;;;11.33;6.87;;;;;;;7.70;72.67;103028.13;5051722;28;20450;-49
2022/01/14 11:15:40;;;;;;;6.20;5.90;;;;;;;7.64;71.92;103015.34;5052568;28;20993;-46
2022/01/14 11:18:10;;;;;;;6.37;6.07;;;;;;;7.63;64.99;103008.31;5052763;28;20431;-47
2022/01/14 11:23:14;;;;;;;7.03;6.47;;;;;;;7.57;62.87;103017.63;5052045;28;20428;-46
2022/01/14 11:23:25;;;;;;;7.43;7.00;;;;;;;7.49;60.36;103028.03;5051933;28;20534;-48
2022/01/14 11:25:59;;;;;;;6.77;6.50;;;;;;;7.45;59.82;103026.56;5051936;28;20482;-49
2022/01/14 11:28:30;;;;;;;7.40;6.80;;;;;;;7.45;62.51;103031.03;5052231;28;20427;-45
2022/01/14 11:30:59;;;;;;;6.47;6.17;;;;;;;7.51;64.61;103038.50;5051410;28;20431;-47
2022/01/14 11:33:41;;;;;;;8.00;7.30;;;;;;;7.67;66.88;103025.72;5051789;28;20505;-51
2022/01/14 11:36:10;;;;;;;6.80;6.40;;;;;;;7.73;76.10;103012.81;5051983;28;20814;-47
2022/01/14 11:38:41;;;;;;;7.93;7.07;;;;;;;7.77;85.79;103002.75;5051996;28;20446;-49
2022/01/14 11:41:12;;;;;;;7.27;6.60;;;;;;;7.76;88.57;103006.41;5051212;28;20467;-49
2022/01/14 11:43:43;;;;;;;9.43;7.20;;;;;;;7.69;88.95;103011.34;5046140;28;20439;-48
2022/01/14 11:46:14;;;;;;;7.70;7.00;;;;;;;7.64;90.48;103015.34;5050137;28;20558;-48